createdAt,value
2018-09-09T00:01:04.348Z,76.26
2018-09-09T00:02:44.768Z,75.87
2018-09-09T00:04:22.574Z,76.54
2018-09-09T00:06:00.936Z,75.96
2018-09-09T00:07:36.636Z,76.00
2018-09-09T00:09:16.454Z,76.53
2018-09-09T00:10:51.624Z,76.35
2018-09-09T00:12:27.710Z,76.77
2018-09-09T00:14:03.927Z,76.80
2018-09-09T00:15:40.541Z,76.65
2018-09-09T00:17:16.012Z,76.90
2018-09-09T00:18:51.724Z,76.89
2018-09-09T00:20:26.529Z,76.84
2018-09-09T00:22:01.553Z,77.11
2018-09-09T00:23:37.191Z,76.40
2018-09-09T00:25:13.917Z,76.71
2018-09-09T00:26:51.668Z,76.67
2018-09-09T00:28:27.115Z,76.34
2018-09-09T00:30:03.693Z,76.93
2018-09-09T00:31:39.883Z,76.28
2018-09-09T00:33:15.431Z,76.56
2018-09-09T00:34:50.786Z,76.79
2018-09-09T00:36:26.660Z,76.56
2018-09-09T00:38:01.600Z,77.07
2018-09-09T00:39:36.535Z,77.21
2018-09-09T00:41:11.897Z,77.43
2018-09-09T00:42:47.002Z,77.14
2018-09-09T00:44:23.292Z,77.06
2018-09-09T00:45:58.604Z,77.56
2018-09-09T00:47:33.625Z,76.88
2018-09-09T00:49:13.999Z,77.40
2018-09-09T00:50:54.020Z,77.23
2018-09-09T00:52:33.813Z,77.73
2018-09-09T00:54:08.901Z,77.57
2018-09-09T00:55:44.137Z,77.78
2018-09-09T00:57:19.472Z,76.99
2018-09-09T00:58:54.280Z,77.43
2018-09-09T01:00:36.086Z,78.10
2018-09-09T01:02:15.580Z,77.34
2018-09-09T01:03:50.983Z,77.38
2018-09-09T01:05:25.928Z,77.87
2018-09-09T01:07:04.398Z,78.15
2018-09-09T01:08:39.556Z,78.22
2018-09-09T01:10:15.105Z,78.18
2018-09-09T01:11:50.446Z,78.24
2018-09-09T01:13:25.413Z,78.99
2018-09-09T01:15:04.516Z,78.16
2018-09-09T01:16:40.484Z,78.88
2018-09-09T01:18:16.080Z,78.96
2018-09-09T01:19:51.555Z,79.02
2018-09-09T01:21:26.715Z,79.06
2018-09-09T01:23:02.703Z,79.05
2018-09-09T01:24:38.934Z,79.23
2018-09-09T01:26:14.371Z,78.97
2018-09-09T01:27:50.237Z,78.78
2018-09-09T01:29:25.373Z,79.13
2018-09-09T01:31:01.081Z,78.62
2018-09-09T01:32:36.934Z,79.19
2018-09-09T01:34:11.843Z,79.14
2018-09-09T01:35:48.699Z,79.26
2018-09-09T01:37:24.736Z,79.26
2018-09-09T01:39:00.505Z,79.58
2018-09-09T01:40:35.948Z,79.27
2018-09-09T01:42:10.978Z,79.58
2018-09-09T01:43:46.369Z,79.82
2018-09-09T01:45:22.460Z,79.58
2018-09-09T01:46:59.282Z,79.68
2018-09-09T01:48:34.912Z,80.48
2018-09-09T01:50:10.355Z,80.08
2018-09-09T01:51:47.990Z,79.63
2018-09-09T01:53:23.878Z,80.81
2018-09-09T01:55:01.109Z,80.68
2018-09-09T01:56:36.338Z,80.20
2018-09-09T01:58:11.240Z,80.97
2018-09-09T01:59:50.333Z,80.68
2018-09-09T02:01:26.119Z,80.40
2018-09-09T02:03:05.859Z,80.72
2018-09-09T02:04:42.878Z,80.61
2018-09-09T02:06:18.453Z,80.61
2018-09-09T02:07:53.430Z,80.64
2018-09-09T02:09:28.694Z,80.18
2018-09-09T02:11:03.641Z,80.52
2018-09-09T02:12:40.413Z,80.69
2018-09-09T02:14:17.118Z,80.44
2018-09-09T02:15:53.133Z,80.94
2018-09-09T02:17:30.068Z,80.23
2018-09-09T02:19:17.719Z,80.72
2018-09-09T02:20:53.698Z,80.72
2018-09-09T02:22:29.428Z,80.53
2018-09-09T02:24:05.306Z,80.32
2018-09-09T02:25:40.613Z,80.72
2018-09-09T02:27:15.465Z,81.12
2018-09-09T02:28:50.320Z,81.17
2018-09-09T02:30:25.750Z,80.90
2018-09-09T02:32:00.661Z,80.82
2018-09-09T02:33:39.274Z,81.16
2018-09-09T02:35:14.364Z,81.05
2018-09-09T02:36:49.424Z,80.71
2018-09-09T02:38:24.487Z,80.98
2018-09-09T02:40:00.537Z,81.18
2018-09-09T02:41:35.591Z,80.30
2018-09-09T02:43:11.394Z,81.37
2018-09-09T02:44:46.781Z,80.50
2018-09-09T02:46:23.327Z,80.54
2018-09-09T02:47:59.004Z,80.54
2018-09-09T02:49:34.108Z,81.00
2018-09-09T02:51:09.213Z,81.31
2018-09-09T02:52:44.614Z,80.76
2018-09-09T02:54:19.848Z,80.88
2018-09-09T02:55:54.655Z,80.98
2018-09-09T02:57:29.472Z,80.62
2018-09-09T02:59:04.813Z,81.52
2018-09-09T03:00:39.965Z,81.22
2018-09-09T03:02:14.918Z,80.79
2018-09-09T03:03:50.251Z,81.69
2018-09-09T03:05:25.259Z,81.73
2018-09-09T03:07:00.289Z,81.68
2018-09-09T03:08:35.497Z,81.28
2018-09-09T03:10:10.292Z,81.62
2018-09-09T03:11:45.237Z,81.51
2018-09-09T03:13:20.256Z,81.63
2018-09-09T03:14:55.672Z,81.46
2018-09-09T03:16:31.603Z,81.74
2018-09-09T03:18:06.502Z,82.41
2018-09-09T03:19:41.472Z,82.86
2018-09-09T03:21:16.319Z,81.87
2018-09-09T03:22:51.715Z,81.82
2018-09-09T03:24:26.742Z,82.00
2018-09-09T03:26:02.287Z,82.20
2018-09-09T03:27:37.073Z,82.55
2018-09-09T03:29:11.998Z,81.83
2018-09-09T03:30:47.255Z,82.61
2018-09-09T03:32:22.466Z,82.67
2018-09-09T03:33:58.532Z,82.59
2018-09-09T03:35:34.646Z,82.09
2018-09-09T03:37:09.959Z,82.78
2018-09-09T03:38:44.982Z,82.26
2018-09-09T03:40:19.963Z,82.80
2018-09-09T03:41:55.181Z,82.08
2018-09-09T03:43:30.015Z,82.49
2018-09-09T03:45:06.659Z,82.50
2018-09-09T03:46:42.810Z,82.49
2018-09-09T03:48:17.792Z,82.35
2018-09-09T03:49:52.856Z,82.02
2018-09-09T03:51:27.772Z,82.73
2018-09-09T03:53:02.907Z,82.56
2018-09-09T03:54:38.307Z,82.18
2018-09-09T03:56:14.400Z,82.50
2018-09-09T03:57:50.501Z,82.67
2018-09-09T03:59:26.572Z,82.86
2018-09-09T04:01:01.588Z,82.95
2018-09-09T04:02:37.067Z,82.76
2018-09-09T04:04:12.197Z,82.26
2018-09-09T04:05:47.072Z,82.24
2018-09-09T04:07:22.140Z,82.24
2018-09-09T04:08:59.017Z,82.52
2018-09-09T04:10:34.105Z,82.67
2018-09-09T04:12:09.581Z,82.77
2018-09-09T04:13:45.059Z,82.97
2018-09-09T04:15:20.231Z,83.03
2018-09-09T04:16:55.268Z,83.26
2018-09-09T04:18:30.687Z,83.28
2018-09-09T04:20:05.867Z,82.45
2018-09-09T04:21:48.395Z,82.90
2018-09-09T04:23:23.698Z,82.60
2018-09-09T04:24:58.651Z,82.80
2018-09-09T04:26:33.772Z,82.69
2018-09-09T04:28:08.935Z,82.67
2018-09-09T04:29:43.996Z,82.55
2018-09-09T04:31:19.160Z,82.97
2018-09-09T04:32:54.051Z,83.21
2018-09-09T04:34:29.394Z,83.05
2018-09-09T04:36:04.370Z,82.26
2018-09-09T04:37:39.357Z,82.92
2018-09-09T04:39:15.282Z,83.02
2018-09-09T04:40:50.240Z,82.54
2018-09-09T04:42:25.960Z,82.68
2018-09-09T04:44:00.848Z,82.44
2018-09-09T04:45:35.829Z,82.87
2018-09-09T04:47:11.776Z,82.38
2018-09-09T04:48:46.620Z,82.02
2018-09-09T04:50:22.014Z,82.56
2018-09-09T04:51:56.955Z,81.57
2018-09-09T04:53:32.483Z,81.60
2018-09-09T04:55:07.530Z,81.85
2018-09-09T04:56:42.671Z,81.78
2018-09-09T04:58:18.835Z,81.42
2018-09-09T04:59:54.156Z,82.18
2018-09-09T05:01:29.476Z,81.41
2018-09-09T05:03:04.488Z,82.04
2018-09-09T05:04:39.729Z,81.54
2018-09-09T05:06:15.467Z,81.52
2018-09-09T05:07:50.671Z,82.08
2018-09-09T05:09:26.424Z,81.52
2018-09-09T05:11:03.889Z,81.06
2018-09-09T05:12:40.202Z,81.57
2018-09-09T05:14:16.029Z,81.39
2018-09-09T05:15:51.728Z,81.51
2018-09-09T05:17:27.407Z,81.25
2018-09-09T05:19:02.745Z,82.04
2018-09-09T05:20:37.984Z,80.96
2018-09-09T05:22:13.677Z,82.04
2018-09-09T05:23:50.240Z,80.67
2018-09-09T05:25:25.181Z,80.80
2018-09-09T05:27:00.955Z,81.05
2018-09-09T05:28:35.966Z,81.16
2018-09-09T05:30:13.060Z,81.13
2018-09-09T05:31:48.773Z,80.85
2018-09-09T05:33:24.571Z,80.42
2018-09-09T05:34:59.652Z,79.95
2018-09-09T05:36:34.839Z,80.90
2018-09-09T05:38:10.044Z,80.22
2018-09-09T05:39:45.211Z,80.10
2018-09-09T05:41:20.860Z,80.09
2018-09-09T05:42:56.144Z,79.97
2018-09-09T05:44:33.119Z,80.70
2018-09-09T05:46:08.735Z,80.14
2018-09-09T05:47:43.646Z,79.87
2018-09-09T05:49:18.723Z,80.50
2018-09-09T05:50:54.071Z,80.16
2018-09-09T05:52:29.226Z,80.08
2018-09-09T05:54:06.491Z,80.49
2018-09-09T05:55:46.207Z,79.93
2018-09-09T05:57:21.763Z,79.91
2018-09-09T05:58:57.115Z,79.24
2018-09-09T06:00:32.994Z,80.02
2018-09-09T06:02:10.207Z,78.83
2018-09-09T06:03:45.444Z,78.97
2018-09-09T06:05:20.365Z,79.66
2018-09-09T06:06:56.024Z,79.36
2018-09-09T06:08:30.861Z,78.98
2018-09-09T06:10:06.428Z,78.76
2018-09-09T06:11:41.642Z,79.04
2018-09-09T06:13:16.647Z,78.78
2018-09-09T06:14:51.638Z,79.08
2018-09-09T06:16:27.141Z,78.68
2018-09-09T06:18:02.998Z,78.82
2018-09-09T06:19:38.201Z,79.32
2018-09-09T06:21:13.196Z,78.79
2018-09-09T06:22:48.593Z,79.17
2018-09-09T06:24:23.898Z,78.72
2018-09-09T06:26:02.710Z,78.74
2018-09-09T06:27:40.313Z,78.57
2018-09-09T06:29:18.819Z,78.46
2018-09-09T06:30:57.337Z,79.11
2018-09-09T06:32:33.259Z,78.13
2018-09-09T06:34:09.416Z,77.33
2018-09-09T06:35:45.218Z,77.83
2018-09-09T06:37:20.348Z,77.56
2018-09-09T06:38:55.259Z,77.87
2018-09-09T06:40:30.366Z,77.15
2018-09-09T06:42:06.079Z,77.07
2018-09-09T06:43:41.313Z,76.22
2018-09-09T06:45:21.148Z,76.71
2018-09-09T06:46:57.035Z,75.85
2018-09-09T06:48:33.414Z,75.70
2018-09-09T06:50:12.131Z,76.08
2018-09-09T06:51:48.503Z,75.63
2018-09-09T06:54:33.434Z,75.25
2018-09-09T06:56:08.745Z,75.46
2018-09-09T06:57:44.099Z,74.25
2018-09-09T06:59:19.174Z,74.61
2018-09-09T07:01:06.137Z,73.90
2018-09-09T07:02:42.935Z,73.55
2018-09-09T07:04:21.298Z,73.65
2018-09-09T07:06:00.650Z,73.08
2018-09-09T07:07:45.258Z,72.95
2018-09-09T07:09:21.975Z,73.68
2018-09-09T07:11:00.474Z,73.53
2018-09-09T07:13:46.080Z,73.66
2018-09-09T07:15:26.624Z,73.10
2018-09-09T07:17:02.529Z,72.05
2018-09-09T07:18:39.175Z,72.15
2018-09-09T07:20:16.218Z,71.08
2018-09-09T07:21:51.721Z,71.08
2018-09-09T07:23:30.158Z,71.44
2018-09-09T07:25:08.005Z,70.34
2018-09-09T07:26:44.212Z,69.80
2018-09-09T07:28:20.339Z,70.08
2018-09-09T07:29:56.084Z,69.75
2018-09-09T07:31:32.656Z,69.43
2018-09-09T07:33:08.859Z,68.96
2018-09-09T07:34:43.891Z,68.57
2018-09-09T07:36:19.514Z,67.91
2018-09-09T07:37:56.532Z,68.11
2018-09-09T07:39:33.057Z,67.69
2018-09-09T07:41:11.387Z,66.94
2018-09-09T07:42:55.113Z,66.87
2018-09-09T07:44:30.982Z,66.16
2018-09-09T07:46:07.820Z,66.49
2018-09-09T07:47:45.251Z,66.20
2018-09-09T07:49:20.736Z,65.54
2018-09-09T07:50:57.945Z,64.73
2018-09-09T07:52:34.463Z,64.46
2018-09-09T07:54:11.448Z,64.11
2018-09-09T07:55:49.390Z,63.75
2018-09-09T07:57:24.744Z,64.49
2018-09-09T07:59:02.568Z,64.50
2018-09-09T08:01:49.159Z,65.37
2018-09-09T08:03:25.827Z,65.71
2018-09-09T08:05:02.762Z,65.34
2018-09-09T08:06:38.791Z,65.02
2018-09-09T08:08:14.999Z,65.21
2018-09-09T08:09:50.944Z,64.71
2018-09-09T08:11:32.022Z,65.03
2018-09-09T08:13:08.478Z,64.37
2018-09-09T08:14:46.135Z,63.81
2018-09-09T08:16:24.221Z,62.88
2018-09-09T08:18:00.090Z,62.97
2018-09-09T08:19:36.878Z,63.44
2018-09-09T08:21:12.739Z,62.26
2018-09-09T08:22:48.597Z,61.27
2018-09-09T08:24:24.778Z,60.84
2018-09-09T08:26:00.453Z,59.87
2018-09-09T08:27:37.706Z,57.70
2018-09-09T08:29:15.564Z,57.68
2018-09-09T08:30:51.440Z,56.71
2018-09-09T08:32:28.628Z,57.50
2018-09-09T08:34:04.686Z,57.42
2018-09-09T08:35:39.907Z,58.78
2018-09-09T08:37:15.318Z,57.04
2018-09-09T08:38:53.707Z,56.56
2018-09-09T08:40:41.299Z,56.88
2018-09-09T08:42:31.046Z,57.08
2018-09-09T08:44:10.239Z,57.22
2018-09-09T08:45:47.755Z,58.29
2018-09-09T08:47:25.640Z,57.81
2018-09-09T08:49:07.484Z,56.92
2018-09-09T08:50:47.501Z,55.84
2018-09-09T08:52:27.270Z,56.30
2018-09-09T08:54:04.939Z,56.58
2018-09-09T08:55:45.122Z,55.59
2018-09-09T08:57:23.891Z,55.33
2018-09-09T08:59:01.826Z,55.48
2018-09-09T09:00:38.863Z,54.96
2018-09-09T09:02:15.740Z,55.35
2018-09-09T09:03:54.486Z,55.49
2018-09-09T09:05:32.777Z,55.32
2018-09-09T09:07:10.861Z,54.97
2018-09-09T09:08:46.986Z,53.66
2018-09-09T09:10:22.771Z,55.18
2018-09-09T09:12:00.140Z,54.38
2018-09-09T09:13:36.901Z,54.35
2018-09-09T09:15:19.099Z,53.94
2018-09-09T09:16:57.615Z,54.26
2018-09-09T09:18:43.159Z,54.30
2018-09-09T09:20:19.026Z,54.83
2018-09-09T09:21:56.615Z,54.69
2018-09-09T09:23:34.475Z,54.72
2018-09-09T09:25:12.578Z,55.27
2018-09-09T09:26:48.852Z,53.72
2018-09-09T09:28:26.293Z,54.95
2018-09-09T09:30:03.645Z,54.30
2018-09-09T09:31:40.220Z,52.56
2018-09-09T09:33:16.235Z,53.29
2018-09-09T09:34:55.707Z,51.76
2018-09-09T09:36:31.384Z,51.26
2018-09-09T09:38:08.091Z,51.79
2018-09-09T09:39:46.546Z,50.94
2018-09-09T09:41:25.452Z,51.54
2018-09-09T09:43:02.228Z,50.67
2018-09-09T09:44:38.609Z,51.34
2018-09-09T09:46:19.056Z,51.12
2018-09-09T09:48:10.581Z,50.94
2018-09-09T09:49:47.965Z,51.98
2018-09-09T09:51:34.580Z,51.24
2018-09-09T09:53:10.530Z,51.02
2018-09-09T09:54:47.954Z,49.65
2018-09-09T09:56:25.529Z,49.34
2018-09-09T09:58:02.401Z,48.89
2018-09-09T09:59:40.394Z,50.69
2018-09-09T10:01:17.335Z,49.28
2018-09-09T10:02:53.186Z,49.66
2018-09-09T10:04:29.763Z,49.93
2018-09-09T10:06:06.792Z,50.60
2018-09-09T10:07:44.183Z,51.11
2018-09-09T10:09:20.583Z,49.95
2018-09-09T10:10:58.679Z,52.02
2018-09-09T10:12:37.803Z,50.95
2018-09-09T10:14:16.474Z,51.59
2018-09-09T10:15:56.286Z,50.71
2018-09-09T10:17:34.818Z,50.87
2018-09-09T10:19:10.116Z,51.71
2018-09-09T10:20:46.931Z,50.17
2018-09-09T10:22:23.513Z,47.87
2018-09-09T10:24:00.345Z,48.79
2018-09-09T10:25:36.354Z,48.38
2018-09-09T10:27:12.504Z,47.77
2018-09-09T10:28:50.507Z,47.07
2018-09-09T10:30:26.109Z,45.33
2018-09-09T10:32:03.840Z,46.11
2018-09-09T10:33:39.257Z,45.36
2018-09-09T10:36:28.654Z,44.58
2018-09-09T10:38:04.152Z,45.14
2018-09-09T10:39:40.332Z,43.93
2018-09-09T10:41:15.645Z,43.89
2018-09-09T10:42:51.330Z,45.35
2018-09-09T10:44:30.055Z,44.40
2018-09-09T10:46:08.802Z,44.17
2018-09-09T10:47:47.819Z,43.82
2018-09-09T10:49:29.839Z,43.47
2018-09-09T10:51:05.656Z,42.23
2018-09-09T10:52:43.041Z,42.97
2018-09-09T10:54:24.478Z,43.67
2018-09-09T10:56:01.314Z,42.55
2018-09-09T10:57:37.241Z,44.01
2018-09-09T10:59:14.001Z,43.60
2018-09-09T11:00:51.679Z,44.02
2018-09-09T11:02:28.591Z,44.28
2018-09-09T11:04:05.346Z,43.68
2018-09-09T11:05:42.453Z,43.52
2018-09-09T11:07:18.760Z,43.91
2018-09-09T11:08:55.551Z,44.38
2018-09-09T11:10:33.916Z,44.10
2018-09-09T11:12:12.310Z,44.28
2018-09-09T11:13:47.891Z,44.47
2018-09-09T11:15:23.524Z,44.06
2018-09-09T11:17:07.019Z,44.86
2018-09-09T11:18:43.551Z,44.44
2018-09-09T11:20:20.505Z,45.85
2018-09-09T11:21:58.394Z,44.65
2018-09-09T11:23:34.313Z,43.75
2018-09-09T11:25:11.679Z,41.86
2018-09-09T11:26:50.469Z,42.74
2018-09-09T11:28:29.222Z,44.25
2018-09-09T11:30:09.175Z,42.62
2018-09-09T11:31:46.852Z,42.62
2018-09-09T11:33:22.414Z,41.94
2018-09-09T11:34:58.984Z,41.62
2018-09-09T11:36:35.179Z,40.78
2018-09-09T11:38:12.304Z,40.60
2018-09-09T11:39:58.602Z,40.58
2018-09-09T11:47:39.371Z,38.78
2018-09-09T11:49:18.666Z,39.74
2018-09-09T11:51:00.237Z,40.29
2018-09-09T11:52:48.251Z,41.37
2018-09-09T11:54:27.885Z,42.13
2018-09-09T11:56:04.896Z,42.92
2018-09-09T11:58:16.425Z,42.82
2018-09-09T11:59:54.143Z,43.24
2018-09-09T12:01:31.956Z,44.77
2018-09-09T12:03:07.832Z,42.92
2018-09-09T12:04:49.810Z,43.12
2018-09-09T12:06:26.425Z,43.62
2018-09-09T12:08:06.353Z,41.39
2018-09-09T12:09:42.067Z,41.99
2018-09-09T12:11:20.033Z,41.75
2018-09-09T12:12:56.621Z,43.52
2018-09-09T12:14:32.038Z,43.02
2018-09-09T12:16:13.195Z,43.16
2018-09-09T12:17:57.349Z,40.93
2018-09-09T12:19:43.075Z,40.11
2018-09-09T12:21:21.891Z,42.05
2018-09-09T12:22:58.566Z,41.37
2018-09-09T12:24:33.998Z,41.44
2018-09-09T12:26:09.514Z,41.25
2018-09-09T12:27:46.393Z,39.06
2018-09-09T12:29:22.932Z,39.16
2018-09-09T12:30:59.481Z,38.48
2018-09-09T12:32:35.350Z,38.80
2018-09-09T12:34:21.046Z,40.22
2018-09-09T12:36:00.410Z,41.45
2018-09-09T12:37:40.175Z,43.06
2018-09-09T12:39:29.281Z,41.95
2018-09-09T12:41:09.344Z,42.95
2018-09-09T12:42:45.539Z,41.86
2018-09-09T12:44:28.116Z,40.81
2018-09-09T12:46:10.658Z,39.77
2018-09-09T12:47:52.152Z,41.53
2018-09-09T12:49:28.242Z,41.08
2018-09-09T12:51:04.861Z,40.20
2018-09-09T12:52:41.913Z,39.24
2018-09-09T12:54:20.657Z,40.42
2018-09-09T12:55:57.217Z,40.53
2018-09-09T12:57:34.846Z,42.64
2018-09-09T12:59:13.699Z,42.33
2018-09-09T13:00:50.280Z,41.60
2018-09-09T13:02:25.881Z,41.48
2018-09-09T13:04:02.507Z,43.42
2018-09-09T13:05:39.118Z,41.48
2018-09-09T13:07:26.488Z,41.88
2018-09-09T13:09:04.321Z,43.00
2018-09-09T13:10:45.543Z,42.01
2018-09-09T13:12:21.836Z,42.85
2018-09-09T13:17:54.944Z,42.22
2018-09-09T13:19:35.097Z,42.85
2018-09-09T13:21:11.286Z,41.59
2018-09-09T13:22:47.409Z,43.28
2018-09-09T13:24:27.702Z,42.17
2018-09-09T13:26:05.087Z,41.65
2018-09-09T13:27:41.749Z,41.26
2018-09-09T13:29:17.699Z,41.84
2018-09-09T13:31:05.213Z,42.75
2018-09-09T13:32:44.487Z,43.82
2018-09-09T13:34:20.169Z,43.62
2018-09-09T13:35:58.462Z,44.17
2018-09-09T13:37:34.456Z,42.95
2018-09-09T13:39:13.489Z,43.52
2018-09-09T13:40:52.871Z,43.29
2018-09-09T13:42:31.071Z,42.30
2018-09-09T13:44:11.837Z,44.10
2018-09-09T13:45:47.478Z,43.40
2018-09-09T13:47:23.543Z,43.67
2018-09-09T13:49:01.543Z,43.66
2018-09-09T13:50:38.592Z,43.63
2018-09-09T13:52:23.938Z,45.14
2018-09-09T13:54:01.002Z,43.98
2018-09-09T13:55:36.309Z,45.22
2018-09-09T13:57:12.314Z,45.40
2018-09-09T13:58:48.995Z,44.61
2018-09-09T14:00:25.200Z,45.41
2018-09-09T14:02:00.555Z,45.94
2018-09-09T14:03:38.094Z,44.78
2018-09-09T14:05:17.742Z,44.30
2018-09-09T14:07:11.502Z,45.36
2018-09-09T14:08:50.080Z,44.61
2018-09-09T14:10:28.572Z,43.99
2018-09-09T14:12:06.420Z,44.26
2018-09-09T14:13:46.144Z,44.60
2018-09-09T14:15:25.733Z,44.61
2018-09-09T14:17:05.959Z,44.24
2018-09-09T14:18:43.541Z,44.13
2018-09-09T14:20:22.556Z,44.52
2018-09-09T14:21:59.291Z,44.81
2018-09-09T14:23:36.976Z,44.93
2018-09-09T14:25:16.484Z,44.17
2018-09-09T14:26:55.794Z,43.93
2018-09-09T14:28:35.518Z,44.73
2018-09-09T14:30:19.504Z,44.66
2018-09-09T14:31:57.989Z,45.43
2018-09-09T14:33:38.110Z,45.30
2018-09-09T14:35:20.358Z,44.42
2018-09-09T14:37:01.604Z,45.11
2018-09-09T14:38:42.851Z,44.86
2018-09-09T14:40:20.353Z,44.47
2018-09-09T14:41:59.558Z,43.35
2018-09-09T14:43:37.308Z,43.32
2018-09-09T14:45:39.351Z,44.04
2018-09-09T14:47:25.279Z,43.89
2018-09-09T14:49:20.969Z,43.86
2018-09-09T14:50:57.633Z,43.38
2018-09-09T14:52:37.465Z,43.34
2018-09-09T14:54:14.842Z,44.56
2018-09-09T14:55:53.651Z,43.41
2018-09-09T14:57:32.689Z,44.61
2018-09-09T14:59:10.850Z,44.80
2018-09-09T15:06:09.770Z,44.79
2018-09-09T15:07:51.114Z,44.49
2018-09-09T15:09:28.057Z,44.59
2018-09-09T15:11:05.266Z,44.64
2018-09-09T15:12:48.804Z,45.32
2018-09-09T15:14:27.583Z,44.63
2018-09-09T15:16:09.778Z,44.16
2018-09-09T15:17:49.877Z,44.27
2018-09-09T15:19:27.015Z,44.62
2018-09-09T15:21:05.787Z,44.03
2018-09-09T15:22:50.345Z,44.40
2018-09-09T15:24:29.572Z,45.77
2018-09-09T15:26:08.257Z,44.57
2018-09-09T15:27:43.894Z,44.00
2018-09-09T15:29:20.614Z,43.82
2018-09-09T15:31:01.383Z,44.51
2018-09-09T15:32:39.737Z,44.97
2018-09-09T15:34:15.287Z,45.57
2018-09-09T15:35:53.600Z,44.86
2018-09-09T15:37:31.713Z,46.10
2018-09-09T15:39:11.392Z,45.88
2018-09-09T15:40:47.397Z,45.34
2018-09-09T15:42:26.642Z,46.52
2018-09-09T15:44:06.142Z,44.99
2018-09-09T15:45:59.358Z,46.26
2018-09-09T15:47:40.520Z,46.31
2018-09-09T15:49:20.119Z,46.17
2018-09-09T15:51:03.639Z,47.15
2018-09-09T15:52:43.188Z,47.01
2018-09-09T15:54:26.560Z,45.50
2018-09-09T15:56:05.516Z,45.49
2018-09-09T15:57:49.308Z,45.38
2018-09-09T15:59:26.655Z,45.40
2018-09-09T16:01:12.097Z,45.92
2018-09-09T16:03:04.747Z,44.52
2018-09-09T16:04:44.578Z,46.81
2018-09-09T16:08:16.598Z,45.32
2018-09-09T16:09:56.526Z,44.98
2018-09-09T16:11:39.323Z,47.14
2018-09-09T16:13:26.366Z,45.39
2018-09-09T16:17:29.131Z,47.04
2018-09-09T16:21:12.215Z,46.17
2018-09-09T16:22:54.247Z,46.13
2018-09-09T16:24:37.056Z,47.16
2018-09-09T16:26:19.519Z,46.64
2018-09-09T16:28:04.819Z,47.57
2018-09-09T16:29:49.942Z,47.08
2018-09-09T16:31:34.870Z,47.73
2018-09-09T16:33:11.739Z,47.05
2018-09-09T16:34:52.473Z,47.77
2018-09-09T16:36:33.273Z,47.96
2018-09-09T16:38:13.316Z,48.63
2018-09-09T16:39:55.533Z,47.28
2018-09-09T16:41:35.394Z,47.76
2018-09-09T16:43:11.376Z,46.97
2018-09-09T16:44:48.238Z,46.90
2018-09-09T16:46:26.480Z,48.03
2018-09-09T16:48:15.828Z,47.80
2018-09-09T16:49:59.469Z,47.96
2018-09-09T16:51:37.284Z,48.60
2018-09-09T16:53:29.084Z,48.04
2018-09-09T16:55:08.564Z,49.21
2018-09-09T16:57:07.899Z,49.33
2018-09-09T16:58:48.699Z,49.73
2018-09-09T17:00:40.657Z,49.35
2018-09-09T17:02:23.651Z,51.07
2018-09-09T17:04:08.939Z,51.87
2018-09-09T17:05:51.253Z,52.45
2018-09-09T17:07:30.115Z,52.92
2018-09-09T17:09:12.108Z,53.43
2018-09-09T17:10:52.271Z,53.73
2018-09-09T17:12:33.427Z,53.10
2018-09-09T17:14:13.648Z,53.79
2018-09-09T17:16:54.952Z,53.74
2018-09-09T17:18:35.046Z,54.68
2018-09-09T17:20:14.620Z,54.85
2018-09-09T17:21:57.345Z,55.59
2018-09-09T17:23:39.860Z,56.61
2018-09-09T17:25:34.704Z,56.68
2018-09-09T17:27:17.636Z,58.02
2018-09-09T17:28:59.326Z,58.16
2018-09-09T17:30:46.786Z,59.49
2018-09-09T17:32:35.097Z,60.27
2018-09-09T17:34:15.557Z,58.22
2018-09-09T17:35:57.945Z,60.63
2018-09-09T17:37:40.340Z,59.93
2018-09-09T17:39:16.357Z,57.42
2018-09-09T17:40:58.255Z,58.56
2018-09-09T17:42:44.931Z,58.94
2018-09-09T17:46:12.271Z,58.95
2018-09-09T17:47:59.432Z,58.86
2018-09-09T17:49:38.644Z,59.04
2018-09-09T17:51:18.600Z,58.83
2018-09-09T17:53:04.447Z,58.88
2018-09-09T17:54:41.545Z,59.09
2018-09-09T17:56:24.254Z,59.69
2018-09-09T17:58:04.091Z,59.91
2018-09-09T17:59:43.287Z,59.75
2018-09-09T18:01:29.119Z,60.65
2018-09-09T18:03:06.458Z,61.16
2018-09-09T18:04:59.960Z,61.39
2018-09-09T18:06:39.899Z,62.67
2018-09-09T18:10:10.981Z,63.41
2018-09-09T18:13:41.680Z,64.03
2018-09-09T18:15:23.021Z,64.10
2018-09-09T18:17:13.335Z,64.45
2018-09-09T18:18:51.990Z,64.63
2018-09-09T18:20:33.921Z,64.47
2018-09-09T18:22:15.472Z,64.96
2018-09-09T18:23:52.690Z,64.92
2018-09-09T18:25:30.206Z,65.46
2018-09-09T18:27:25.844Z,65.39
2018-09-09T18:33:22.652Z,65.25
2018-09-09T18:38:12.351Z,65.16
2018-09-09T18:42:18.720Z,65.28
2018-09-09T18:44:07.191Z,65.12
2018-09-09T18:45:59.795Z,65.22
2018-09-09T18:47:40.810Z,65.37
2018-09-09T18:49:28.208Z,65.23
2018-09-09T18:51:08.070Z,65.40
2018-09-09T18:52:44.641Z,65.85
2018-09-09T18:54:35.832Z,66.03
2018-09-09T18:56:17.748Z,66.17
2018-09-09T18:58:01.332Z,67.24
2018-09-09T18:59:42.651Z,66.40
2018-09-09T19:01:28.649Z,66.70
2018-09-09T19:03:26.313Z,67.05
2018-09-09T19:05:16.731Z,67.81
2018-09-09T19:07:08.624Z,67.98
2018-09-09T19:09:02.471Z,68.27
2018-09-09T19:10:52.535Z,68.48
2018-09-09T19:12:36.633Z,68.57
2018-09-09T19:14:17.315Z,69.39
2018-09-09T19:16:05.599Z,68.56
2018-09-09T19:17:51.310Z,68.01
2018-09-09T19:21:34.275Z,67.80
2018-09-09T19:23:14.805Z,68.25
2018-09-09T19:24:59.439Z,68.16
2018-09-09T19:26:40.039Z,68.48
2018-09-09T19:28:36.909Z,68.32
2018-09-09T19:30:46.427Z,68.23
2018-09-09T19:32:27.734Z,68.24
2018-09-09T19:34:04.363Z,68.41
2018-09-09T19:35:45.850Z,69.05
2018-09-09T19:37:23.637Z,68.88
2018-09-09T19:39:10.852Z,69.35
2018-09-09T19:40:47.099Z,68.98
2018-09-09T19:42:24.827Z,69.68
2018-09-09T19:44:05.203Z,70.34
2018-09-09T19:45:41.369Z,69.58
2018-09-09T19:47:19.483Z,70.13
2018-09-09T19:48:57.426Z,69.62
2018-09-09T19:50:34.123Z,70.96
2018-09-09T19:52:12.340Z,70.52
2018-09-09T19:53:51.061Z,71.66
2018-09-09T19:55:30.532Z,71.75
2018-09-09T19:57:08.924Z,71.34
2018-09-09T19:58:46.912Z,71.14
2018-09-09T20:00:22.445Z,71.03
2018-09-09T20:02:04.270Z,71.19
2018-09-09T20:03:44.347Z,70.98
2018-09-09T20:05:30.259Z,71.25
2018-09-09T20:07:11.434Z,72.28
2018-09-09T20:08:55.905Z,71.73
2018-09-09T20:10:34.352Z,71.77
2018-09-09T20:12:12.499Z,71.97
2018-09-09T20:13:48.720Z,71.76
2018-09-09T20:15:32.506Z,71.97
2018-09-09T20:17:18.014Z,72.37
2018-09-09T20:18:58.478Z,72.34
2018-09-09T20:22:30.577Z,72.59
2018-09-09T20:24:07.498Z,72.45
2018-09-09T20:25:46.105Z,72.71
2018-09-09T20:27:23.753Z,72.58
2018-09-09T20:29:00.622Z,72.97
2018-09-09T20:30:37.903Z,72.38
2018-09-09T20:32:18.692Z,73.17
2018-09-09T20:34:01.819Z,72.91
2018-09-09T20:35:43.940Z,72.66
2018-09-09T20:37:20.396Z,73.38
2018-09-09T20:39:02.138Z,73.35
2018-09-09T20:40:37.354Z,73.18
2018-09-09T20:42:18.391Z,73.63
2018-09-09T20:43:55.109Z,73.51
2018-09-09T20:45:35.698Z,73.93
2018-09-09T20:47:15.223Z,73.55
2018-09-09T20:48:56.601Z,73.69
2018-09-09T20:50:33.924Z,73.85
2018-09-09T20:53:59.915Z,74.32
2018-09-09T20:55:44.578Z,74.08
2018-09-09T20:57:27.567Z,74.62
2018-09-09T20:59:07.005Z,74.44
2018-09-09T21:00:46.591Z,74.75
2018-09-09T21:02:26.024Z,74.52
2018-09-09T21:05:46.405Z,74.54
2018-09-09T21:07:23.717Z,74.77
2018-09-09T21:09:01.701Z,74.63
2018-09-09T21:10:38.278Z,74.76
2018-09-09T21:12:17.516Z,74.75
2018-09-09T21:13:53.441Z,75.04
2018-09-09T21:15:30.762Z,74.51
2018-09-09T21:17:05.799Z,74.89
2018-09-09T21:18:42.397Z,74.91
2018-09-09T21:20:18.298Z,75.26
2018-09-09T21:21:54.443Z,74.84
2018-09-09T21:23:30.348Z,75.22
2018-09-09T21:25:08.130Z,74.97
2018-09-09T21:26:44.802Z,74.91
2018-09-09T21:28:21.018Z,75.34
2018-09-09T21:31:40.193Z,75.81
2018-09-09T21:33:17.123Z,76.29
2018-09-09T21:34:52.391Z,75.73
2018-09-09T21:36:28.593Z,76.10
2018-09-09T21:38:05.343Z,75.65
2018-09-09T21:39:41.286Z,75.30
2018-09-09T21:41:17.363Z,75.59
2018-09-09T21:42:54.883Z,76.13
2018-09-09T21:44:30.377Z,75.94
2018-09-09T21:46:07.933Z,75.64
2018-09-09T21:47:45.784Z,75.64
2018-09-09T21:49:21.944Z,76.21
2018-09-09T21:50:58.507Z,75.99
2018-09-09T21:52:36.000Z,76.03
2018-09-09T21:54:15.980Z,76.18
2018-09-09T21:55:51.310Z,76.72
2018-09-09T21:57:27.804Z,76.17
2018-09-09T21:59:04.211Z,76.31